B8099 ZBNY-ZGFS
Flight info
| Callsign | B8099 |
|---|---|
| Flight time | N/A |
| Altitude | 36100 |
| Route | OMDEK W37 ATMEM/K0891S1160 W37 GUSIV/K0895S1130 W37 PEXID/K0887S1160 W37 OMBEB/K0882S1190 R473 BEMAG/K0885S1160 V5 ENVIP |
| Aircraft | CL60/M-SBDE1E2E3FGHIJ1J4J5J7M3RWXYZ/LB1V1D1 |
Departure
| Time | 2026-04-12 08:12 |
|---|---|
| Airport | Beijing Nanyuan Airport (ZBNY) |
Arrival
| Time | N/A |
|---|---|
| Airport | Foshan Shadi Airport (ZGFS) |
| Time | Latitude | Longitude | Altitude | Speed | Heading |
|---|---|---|---|---|---|
| 2026-04-12 07:40 | 39.78968 | 116.39043 | 120 ft | 0 kts | 87° |
| 2026-04-12 08:07 | 39.78971 | 116.39049 | 120 ft | 1 kts | 32° |
| 2026-04-12 08:07 | 39.78973 | 116.39050 | 120 ft | 0 kts | 10° |
| 2026-04-12 08:07 | 39.78975 | 116.39030 | 120 ft | 1 kts | 237° |
| 2026-04-12 08:08 | 39.78960 | 116.38982 | 120 ft | 7 kts | 229° |
| 2026-04-12 08:08 | 39.78877 | 116.38975 | 120 ft | 20 kts | 177° |
| 2026-04-12 08:08 | 39.78766 | 116.38921 | 120 ft | 14 kts | 240° |
| 2026-04-12 08:08 | 39.78711 | 116.38849 | 120 ft | 14 kts | 183° |
| 2026-04-12 08:09 | 39.78565 | 116.38860 | 120 ft | 27 kts | 176° |
| 2026-04-12 08:09 | 39.78337 | 116.38878 | 120 ft | 38 kts | 176° |
| 2026-04-12 08:09 | 39.78069 | 116.38897 | 120 ft | 34 kts | 178° |
| 2026-04-12 08:09 | 39.77875 | 116.38910 | 120 ft | 23 kts | 176° |
| 2026-04-12 08:10 | 39.77705 | 116.38920 | 120 ft | 25 kts | 175° |
| 2026-04-12 08:10 | 39.77523 | 116.38936 | 119 ft | 26 kts | 177° |
| 2026-04-12 08:10 | 39.77332 | 116.38950 | 119 ft | 28 kts | 175° |
| 2026-04-12 08:10 | 39.77133 | 116.38963 | 119 ft | 29 kts | 176° |
| 2026-04-12 08:11 | 39.77023 | 116.38923 | 119 ft | 15 kts | 269° |
| 2026-04-12 08:11 | 39.77017 | 116.38773 | 119 ft | 16 kts | 266° |
| 2026-04-12 08:11 | 39.77090 | 116.38715 | 119 ft | 15 kts | 356° |
| 2026-04-12 08:11 | 39.77394 | 116.38693 | 119 ft | 90 kts | 357° |
| 2026-04-12 08:12 | 39.78305 | 116.38625 | 123 ft | 169 kts | 358° |
| 2026-04-12 08:12 | 39.79575 | 116.38549 | 668 ft | 186 kts | 358° |
| 2026-04-12 08:12 | 39.80872 | 116.38455 | 1649 ft | 193 kts | 359° |
| 2026-04-12 08:12 | 39.82144 | 116.38753 | 2860 ft | 191 kts | 32° |
| 2026-04-12 08:13 | 39.83011 | 116.39971 | 4074 ft | 191 kts | 66° |
| 2026-04-12 08:13 | 39.83179 | 116.41621 | 5226 ft | 194 kts | 94° |
| 2026-04-12 08:13 | 39.82841 | 116.43333 | 6303 ft | 201 kts | 110° |
| 2026-04-12 08:13 | 39.82099 | 116.44890 | 7338 ft | 209 kts | 129° |
| 2026-04-12 08:14 | 39.81002 | 116.46075 | 8344 ft | 214 kts | 149° |
| 2026-04-12 08:14 | 39.79615 | 116.46759 | 9350 ft | 218 kts | 170° |
| 2026-04-12 08:14 | 39.78127 | 116.46805 | 10391 ft | 219 kts | 189° |
| 2026-04-12 08:14 | 39.76680 | 116.46334 | 11421 ft | 217 kts | 206° |
| 2026-04-12 08:15 | 39.75412 | 116.45409 | 12430 ft | 213 kts | 221° |
| 2026-04-12 08:15 | 39.74386 | 116.44093 | 13428 ft | 208 kts | 237° |
| 2026-04-12 08:15 | 39.73663 | 116.42496 | 14337 ft | 209 kts | 250° |
| 2026-04-12 08:15 | 39.73259 | 116.40600 | 14805 ft | 230 kts | 265° |
| 2026-04-12 08:16 | 39.73213 | 116.38461 | 15319 ft | 251 kts | 270° |
| 2026-04-12 08:16 | 39.73206 | 116.36008 | 15295 ft | 292 kts | 270° |
| 2026-04-12 08:16 | 39.73192 | 116.33182 | 15292 ft | 327 kts | 270° |
| 2026-04-12 08:16 | 39.73176 | 116.30120 | 15576 ft | 350 kts | 270° |
| 2026-04-12 08:17 | 39.73157 | 116.26885 | 16301 ft | 359 kts | 270° |
| 2026-04-12 08:17 | 39.73140 | 116.24030 | 17041 ft | 361 kts | 270° |
| 2026-04-12 08:17 | 39.73119 | 116.20792 | 17929 ft | 362 kts | 270° |
| 2026-04-12 08:17 | 39.73098 | 116.17538 | 18740 ft | 364 kts | 270° |
| 2026-04-12 08:18 | 39.73074 | 116.14208 | 19450 ft | 369 kts | 270° |
| 2026-04-12 08:18 | 39.73049 | 116.10871 | 20157 ft | 374 kts | 270° |
| 2026-04-12 08:18 | 39.73023 | 116.07465 | 20932 ft | 377 kts | 270° |
| 2026-04-12 08:18 | 39.72996 | 116.04083 | 21740 ft | 378 kts | 270° |
| 2026-04-12 08:19 | 39.72967 | 116.00648 | 22458 ft | 381 kts | 270° |
| 2026-04-12 08:19 | 39.72926 | 115.97213 | 23103 ft | 385 kts | 268° |
| 2026-04-12 08:19 | 39.72487 | 115.93763 | 23770 ft | 389 kts | 255° |
| 2026-04-12 08:19 | 39.71405 | 115.90586 | 24403 ft | 395 kts | 242° |
| 2026-04-12 08:20 | 39.69659 | 115.87758 | 25011 ft | 405 kts | 228° |
| 2026-04-12 08:20 | 39.67356 | 115.85609 | 25589 ft | 415 kts | 213° |
| 2026-04-12 08:20 | 39.64619 | 115.84330 | 26053 ft | 430 kts | 197° |
| 2026-04-12 08:20 | 39.61573 | 115.84167 | 26482 ft | 446 kts | 180° |
| 2026-04-12 08:21 | 39.58467 | 115.84633 | 26887 ft | 452 kts | 179° |
| 2026-04-12 08:21 | 39.55321 | 115.85104 | 27299 ft | 455 kts | 179° |
| 2026-04-12 08:21 | 39.52159 | 115.85576 | 27766 ft | 457 kts | 179° |
| 2026-04-12 08:21 | 39.49015 | 115.86046 | 28192 ft | 459 kts | 179° |
| 2026-04-12 08:22 | 39.45838 | 115.86519 | 28540 ft | 463 kts | 179° |
| 2026-04-12 08:22 | 39.42647 | 115.86994 | 28902 ft | 466 kts | 179° |
| 2026-04-12 08:22 | 39.39407 | 115.87477 | 29244 ft | 468 kts | 179° |
| 2026-04-12 08:22 | 39.36156 | 115.87962 | 29648 ft | 469 kts | 179° |
| 2026-04-12 08:23 | 39.32930 | 115.88444 | 30126 ft | 467 kts | 179° |
| 2026-04-12 08:23 | 39.29690 | 115.88927 | 30620 ft | 465 kts | 179° |
| 2026-04-12 08:23 | 39.26496 | 115.89404 | 31139 ft | 463 kts | 179° |
| 2026-04-12 08:23 | 39.23319 | 115.89878 | 31673 ft | 459 kts | 179° |
| 2026-04-12 08:24 | 39.20140 | 115.90351 | 32166 ft | 457 kts | 179° |
| 2026-04-12 08:24 | 39.17018 | 115.90816 | 32635 ft | 455 kts | 179° |
| 2026-04-12 08:24 | 39.13853 | 115.91293 | 33063 ft | 454 kts | 179° |
| 2026-04-12 08:24 | 39.10766 | 115.92089 | 33442 ft | 460 kts | 171° |
| 2026-04-12 08:25 | 39.07686 | 115.93246 | 33812 ft | 460 kts | 170° |
| 2026-04-12 08:25 | 39.04625 | 115.94402 | 34152 ft | 459 kts | 170° |
| 2026-04-12 08:25 | 39.01534 | 115.95566 | 34429 ft | 459 kts | 170° |
| 2026-04-12 08:25 | 38.98507 | 115.96703 | 34630 ft | 460 kts | 170° |
| 2026-04-12 08:26 | 38.95402 | 115.97870 | 34862 ft | 460 kts | 170° |
| 2026-04-12 08:26 | 38.92368 | 115.99009 | 35102 ft | 460 kts | 170° |
| 2026-04-12 08:26 | 38.89281 | 116.00166 | 35318 ft | 460 kts | 170° |
| 2026-04-12 08:26 | 38.86182 | 116.01327 | 35569 ft | 459 kts | 171° |
| 2026-04-12 08:27 | 38.83151 | 116.02461 | 35785 ft | 459 kts | 171° |
| 2026-04-12 08:27 | 38.80060 | 116.03609 | 35952 ft | 461 kts | 171° |
| 2026-04-12 08:27 | 38.73843 | 116.05923 | 35960 ft | 471 kts | 171° |
| 2026-04-12 08:28 | 38.67440 | 116.07229 | 35952 ft | 465 kts | 185° |
| 2026-04-12 08:28 | 38.61053 | 116.06519 | 35961 ft | 455 kts | 198° |
| 2026-04-12 08:29 | 38.55088 | 116.04103 | 35959 ft | 448 kts | 207° |
| 2026-04-12 08:29 | 38.49272 | 116.01327 | 35960 ft | 448 kts | 206° |
| 2026-04-12 08:30 | 38.43457 | 115.98560 | 35950 ft | 447 kts | 207° |
| 2026-04-12 08:30 | 38.37604 | 115.95780 | 35961 ft | 447 kts | 207° |
| 2026-04-12 08:31 | 38.31802 | 115.93028 | 35958 ft | 446 kts | 206° |
| 2026-04-12 08:31 | 38.25760 | 115.90929 | 35953 ft | 457 kts | 194° |
| 2026-04-12 08:32 | 38.19459 | 115.89932 | 35947 ft | 458 kts | 194° |
| 2026-04-12 08:32 | 38.13089 | 115.88927 | 35941 ft | 459 kts | 193° |
| 2026-04-12 08:33 | 38.06785 | 115.87938 | 35939 ft | 459 kts | 194° |
| 2026-04-12 08:33 | 38.00439 | 115.86947 | 35941 ft | 459 kts | 194° |
| 2026-04-12 08:34 | 37.94104 | 115.85960 | 35945 ft | 459 kts | 193° |
| 2026-04-12 08:34 | 37.87795 | 115.84965 | 35968 ft | 458 kts | 194° |
| 2026-04-12 08:35 | 37.81478 | 115.83929 | 35965 ft | 458 kts | 194° |
| 2026-04-12 08:35 | 37.75128 | 115.82884 | 35931 ft | 458 kts | 195° |
| 2026-04-12 08:36 | 37.69117 | 115.80802 | 35932 ft | 446 kts | 209° |
| 2026-04-12 08:36 | 37.63455 | 115.77578 | 35942 ft | 445 kts | 210° |
| 2026-04-12 08:37 | 37.57818 | 115.74365 | 35929 ft | 445 kts | 210° |
| 2026-04-12 08:37 | 37.52213 | 115.71178 | 35953 ft | 443 kts | 210° |
| 2026-04-12 08:38 | 37.46594 | 115.67984 | 35950 ft | 444 kts | 210° |
| 2026-04-12 08:38 | 37.40956 | 115.64743 | 35963 ft | 442 kts | 211° |
| 2026-04-12 08:39 | 37.35440 | 115.61425 | 35946 ft | 442 kts | 211° |
| 2026-04-12 08:39 | 37.29874 | 115.58086 | 35958 ft | 444 kts | 211° |
| 2026-04-12 08:40 | 37.24325 | 115.54765 | 35999 ft | 441 kts | 211° |
| 2026-04-12 08:40 | 37.18758 | 115.51435 | 35960 ft | 444 kts | 211° |
| 2026-04-12 08:41 | 37.13208 | 115.48123 | 35936 ft | 443 kts | 211° |
| 2026-04-12 08:41 | 37.07654 | 115.44815 | 35951 ft | 442 kts | 211° |
| 2026-04-12 08:42 | 37.02074 | 115.41496 | 35934 ft | 443 kts | 211° |
| 2026-04-12 08:42 | 36.96532 | 115.38206 | 35944 ft | 442 kts | 211° |
| 2026-04-12 08:43 | 36.90944 | 115.34900 | 35952 ft | 445 kts | 210° |
| 2026-04-12 08:43 | 36.85305 | 115.31634 | 35962 ft | 444 kts | 210° |
| 2026-04-12 08:44 | 36.79726 | 115.28408 | 35993 ft | 442 kts | 211° |
| 2026-04-12 08:44 | 36.74081 | 115.25145 | 35904 ft | 444 kts | 211° |
| 2026-04-12 08:45 | 36.68532 | 115.21928 | 35934 ft | 443 kts | 211° |
| 2026-04-12 08:45 | 36.62947 | 115.18659 | 35959 ft | 442 kts | 211° |
| 2026-04-12 08:46 | 36.57393 | 115.15413 | 35975 ft | 444 kts | 210° |
| 2026-04-12 08:47 | 36.49048 | 115.10558 | 35946 ft | 443 kts | 211° |
| 2026-04-12 08:47 | 36.43487 | 115.07333 | 35945 ft | 439 kts | 211° |
| 2026-04-12 08:48 | 36.37884 | 115.04191 | 35981 ft | 446 kts | 207° |
| 2026-04-12 08:48 | 36.31776 | 115.02412 | 35968 ft | 457 kts | 193° |
| 2026-04-12 08:49 | 36.25408 | 115.01760 | 35985 ft | 458 kts | 192° |
| 2026-04-12 08:49 | 36.19020 | 115.01118 | 35970 ft | 458 kts | 192° |
| 2026-04-12 08:50 | 36.12673 | 115.00482 | 35979 ft | 457 kts | 192° |
| 2026-04-12 08:50 | 36.06328 | 114.99850 | 35979 ft | 458 kts | 192° |
| 2026-04-12 08:51 | 35.99918 | 114.99211 | 35933 ft | 460 kts | 192° |
| 2026-04-12 08:51 | 35.93530 | 114.98579 | 35942 ft | 459 kts | 192° |
| 2026-04-12 08:52 | 35.87157 | 114.97951 | 36013 ft | 458 kts | 192° |
| 2026-04-12 08:52 | 35.80816 | 114.97325 | 35975 ft | 459 kts | 192° |
| 2026-04-12 08:53 | 35.74446 | 114.96701 | 36042 ft | 456 kts | 193° |
| 2026-04-12 08:53 | 35.68092 | 114.96076 | 35970 ft | 457 kts | 192° |
| 2026-04-12 08:54 | 35.61774 | 114.95460 | 35995 ft | 455 kts | 193° |
| 2026-04-12 08:54 | 35.55454 | 114.94841 | 35962 ft | 455 kts | 193° |
| 2026-04-12 08:55 | 35.49116 | 114.94224 | 35982 ft | 455 kts | 193° |
| 2026-04-12 08:55 | 35.42793 | 114.93605 | 35988 ft | 455 kts | 193° |
| 2026-04-12 08:56 | 35.36487 | 114.92989 | 36169 ft | 455 kts | 193° |
| 2026-04-12 08:56 | 35.33325 | 114.92681 | 36010 ft | 455 kts | 193° |
| 2026-04-12 08:56 | 35.30151 | 114.92371 | 35965 ft | 456 kts | 193° |
| 2026-04-12 08:57 | 35.23854 | 114.91750 | 36114 ft | 454 kts | 194° |
| 2026-04-12 08:57 | 35.20664 | 114.91433 | 36008 ft | 455 kts | 193° |
| 2026-04-12 08:57 | 35.17551 | 114.91129 | 35927 ft | 450 kts | 193° |
| 2026-04-12 08:58 | 35.11291 | 114.90505 | 35832 ft | 453 kts | 194° |
| 2026-04-12 08:58 | 35.08135 | 114.90179 | 36137 ft | 451 kts | 194° |
| 2026-04-12 08:58 | 35.04998 | 114.89852 | 35963 ft | 454 kts | 193° |
| 2026-04-12 08:58 | 35.01888 | 114.89533 | 36127 ft | 449 kts | 194° |
| 2026-04-12 08:59 | 34.98752 | 114.89208 | 36004 ft | 451 kts | 194° |
| 2026-04-12 08:59 | 34.92533 | 114.88570 | 36131 ft | 448 kts | 194° |
| 2026-04-12 09:00 | 34.86261 | 114.87922 | 36067 ft | 449 kts | 194° |
| 2026-04-12 09:00 | 34.79991 | 114.87278 | 36006 ft | 449 kts | 194° |
| 2026-04-12 09:01 | 34.73777 | 114.86643 | 36017 ft | 447 kts | 194° |
| 2026-04-12 09:01 | 34.67576 | 114.86008 | 36029 ft | 445 kts | 194° |
| 2026-04-12 09:02 | 34.61369 | 114.85371 | 36073 ft | 449 kts | 194° |
| 2026-04-12 09:02 | 34.55106 | 114.84731 | 35948 ft | 449 kts | 194° |
| 2026-04-12 09:03 | 34.48911 | 114.84103 | 36021 ft | 445 kts | 195° |
| 2026-04-12 09:03 | 34.42757 | 114.83478 | 36021 ft | 445 kts | 194° |
| 2026-04-12 09:04 | 34.36601 | 114.82853 | 36018 ft | 443 kts | 195° |
| 2026-04-12 09:04 | 34.30433 | 114.82227 | 36014 ft | 443 kts | 195° |
| 2026-04-12 09:05 | 34.24291 | 114.81606 | 36032 ft | 442 kts | 195° |
| 2026-04-12 09:05 | 34.18178 | 114.80988 | 36036 ft | 440 kts | 195° |
| 2026-04-12 09:06 | 34.12062 | 114.80393 | 36031 ft | 441 kts | 195° |
| 2026-04-12 09:06 | 34.05935 | 114.79805 | 36046 ft | 439 kts | 195° |
| 2026-04-12 09:07 | 33.99834 | 114.79218 | 36022 ft | 439 kts | 195° |
| 2026-04-12 09:07 | 33.93714 | 114.78630 | 36014 ft | 441 kts | 195° |
| 2026-04-12 09:08 | 33.87553 | 114.78041 | 36035 ft | 440 kts | 195° |
| 2026-04-12 09:08 | 33.81437 | 114.77445 | 36012 ft | 440 kts | 195° |
| 2026-04-12 09:09 | 33.75335 | 114.76836 | 36026 ft | 440 kts | 195° |
| 2026-04-12 09:09 | 33.69234 | 114.76231 | 36016 ft | 441 kts | 195° |
| 2026-04-12 09:10 | 33.63087 | 114.75664 | 36033 ft | 441 kts | 195° |
| 2026-04-12 09:10 | 33.56959 | 114.75082 | 36015 ft | 440 kts | 195° |
| 2026-04-12 09:11 | 33.50823 | 114.74447 | 36002 ft | 439 kts | 196° |
| 2026-04-12 09:11 | 33.44712 | 114.73837 | 36019 ft | 439 kts | 195° |
| 2026-04-12 09:12 | 33.38596 | 114.73245 | 35998 ft | 438 kts | 196° |
| 2026-04-12 09:12 | 33.32513 | 114.72659 | 36000 ft | 438 kts | 195° |
| 2026-04-12 09:13 | 33.26432 | 114.72073 | 36004 ft | 438 kts | 196° |
| 2026-04-12 09:13 | 33.20369 | 114.71488 | 36004 ft | 438 kts | 196° |
| 2026-04-12 09:14 | 33.14283 | 114.70888 | 36014 ft | 438 kts | 196° |
| 2026-04-12 09:14 | 33.08154 | 114.70284 | 35999 ft | 437 kts | 195° |
| 2026-04-12 09:15 | 33.02105 | 114.69689 | 36006 ft | 436 kts | 196° |
| 2026-04-12 09:15 | 32.96008 | 114.69089 | 35994 ft | 436 kts | 196° |
| 2026-04-12 09:16 | 32.89949 | 114.68494 | 36000 ft | 437 kts | 196° |
| 2026-04-12 09:16 | 32.83813 | 114.67909 | 35999 ft | 439 kts | 196° |
| 2026-04-12 09:17 | 32.77733 | 114.67339 | 35994 ft | 439 kts | 195° |
| 2026-04-12 09:17 | 32.71595 | 114.66764 | 35995 ft | 438 kts | 195° |
| 2026-04-12 09:18 | 32.65480 | 114.66192 | 35993 ft | 437 kts | 195° |
| 2026-04-12 09:18 | 32.59368 | 114.65615 | 35989 ft | 438 kts | 195° |
| 2026-04-12 09:19 | 32.53275 | 114.65040 | 35992 ft | 438 kts | 195° |
| 2026-04-12 09:19 | 32.47175 | 114.64465 | 35993 ft | 438 kts | 196° |
| 2026-04-12 09:20 | 32.38002 | 114.63601 | 35984 ft | 440 kts | 196° |
| 2026-04-12 09:21 | 32.28820 | 114.62714 | 35991 ft | 440 kts | 196° |
| 2026-04-12 09:21 | 32.22680 | 114.62121 | 35990 ft | 439 kts | 195° |
| 2026-04-12 09:22 | 32.16536 | 114.61528 | 35992 ft | 438 kts | 196° |
| 2026-04-12 09:22 | 32.10461 | 114.60941 | 35991 ft | 438 kts | 196° |
| 2026-04-12 09:23 | 32.04356 | 114.60349 | 35991 ft | 438 kts | 196° |
| 2026-04-12 09:23 | 31.98277 | 114.59759 | 35988 ft | 439 kts | 196° |
| 2026-04-12 09:24 | 31.92162 | 114.59167 | 35983 ft | 440 kts | 196° |
| 2026-04-12 09:24 | 31.86014 | 114.58572 | 35980 ft | 441 kts | 196° |
| 2026-04-12 09:25 | 31.79830 | 114.57975 | 35987 ft | 441 kts | 196° |
| 2026-04-12 09:25 | 31.73685 | 114.57384 | 35972 ft | 441 kts | 196° |
| 2026-04-12 09:26 | 31.67543 | 114.56793 | 35979 ft | 440 kts | 195° |
| 2026-04-12 09:26 | 31.61417 | 114.56206 | 35974 ft | 441 kts | 196° |
| 2026-04-12 09:27 | 31.55269 | 114.55618 | 35968 ft | 442 kts | 195° |
| 2026-04-12 09:27 | 31.49118 | 114.55032 | 35964 ft | 442 kts | 195° |
| 2026-04-12 09:28 | 31.42947 | 114.54444 | 35962 ft | 443 kts | 195° |
| 2026-04-12 09:28 | 31.36807 | 114.53860 | 35955 ft | 442 kts | 195° |
| 2026-04-12 09:29 | 31.30636 | 114.53274 | 35963 ft | 443 kts | 195° |
| 2026-04-12 09:29 | 31.24589 | 114.52307 | 35959 ft | 429 kts | 205° |
| 2026-04-12 09:30 | 31.19083 | 114.49816 | 35962 ft | 417 kts | 214° |
| 2026-04-12 09:30 | 31.13789 | 114.46965 | 35962 ft | 418 kts | 214° |
| 2026-04-12 09:31 | 31.08469 | 114.44109 | 35952 ft | 418 kts | 213° |